sensor_id;sensor_type;location;lat;lon;timestamp;P1;durP1;ratioP1;P2;durP2;ratioP2
29550;SDS011;16488;52.396;10.696;2023-05-16T00:00:33;15.07;;;8.40;;
29550;SDS011;16488;52.396;10.696;2023-05-16T00:02:59;19.98;;;9.20;;
29550;SDS011;16488;52.396;10.696;2023-05-16T00:05:26;14.02;;;8.77;;
29550;SDS011;16488;52.396;10.696;2023-05-16T00:07:52;17.25;;;9.07;;
29550;SDS011;16488;52.396;10.696;2023-05-16T00:10:18;14.15;;;8.57;;
29550;SDS011;16488;52.396;10.696;2023-05-16T00:12:43;18.93;;;9.97;;
29550;SDS011;16488;52.396;10.696;2023-05-16T00:15:10;15.93;;;9.52;;
29550;SDS011;16488;52.396;10.696;2023-05-16T00:17:39;15.18;;;10.07;;
29550;SDS011;16488;52.396;10.696;2023-05-16T00:20:05;18.20;;;10.15;;
29550;SDS011;16488;52.396;10.696;2023-05-16T00:22:39;13.52;;;9.90;;
29550;SDS011;16488;52.396;10.696;2023-05-16T00:25:05;12.90;;;8.90;;
29550;SDS011;16488;52.396;10.696;2023-05-16T00:27:33;17.40;;;9.15;;
29550;SDS011;16488;52.396;10.696;2023-05-16T00:30:00;15.45;;;8.32;;
29550;SDS011;16488;52.396;10.696;2023-05-16T00:32:27;16.60;;;8.82;;
29550;SDS011;16488;52.396;10.696;2023-05-16T00:34:52;13.45;;;8.10;;
29550;SDS011;16488;52.396;10.696;2023-05-16T00:37:18;13.47;;;7.80;;
29550;SDS011;16488;52.396;10.696;2023-05-16T00:39:43;12.17;;;7.77;;
29550;SDS011;16488;52.396;10.696;2023-05-16T00:42:09;16.50;;;8.00;;
29550;SDS011;16488;52.396;10.696;2023-05-16T00:44:34;12.35;;;7.45;;
29550;SDS011;16488;52.396;10.696;2023-05-16T00:47:00;15.40;;;7.50;;
29550;SDS011;16488;52.396;10.696;2023-05-16T00:49:27;13.35;;;6.65;;
29550;SDS011;16488;52.396;10.696;2023-05-16T00:51:53;14.18;;;6.22;;
29550;SDS011;16488;52.396;10.696;2023-05-16T00:54:21;11.55;;;5.85;;
29550;SDS011;16488;52.396;10.696;2023-05-16T00:56:49;9.43;;;5.72;;
29550;SDS011;16488;52.396;10.696;2023-05-16T00:59:15;7.38;;;5.57;;
29550;SDS011;16488;52.396;10.696;2023-05-16T01:01:41;8.82;;;5.18;;
29550;SDS011;16488;52.396;10.696;2023-05-16T01:04:10;8.98;;;5.25;;
29550;SDS011;16488;52.396;10.696;2023-05-16T01:06:36;11.13;;;5.70;;
29550;SDS011;16488;52.396;10.696;2023-05-16T01:09:02;9.97;;;5.37;;
29550;SDS011;16488;52.396;10.696;2023-05-16T01:22:02;11.30;;;5.45;;
29550;SDS011;16488;52.396;10.696;2023-05-16T01:27:39;7.32;;;4.93;;
29550;SDS011;16488;52.396;10.696;2023-05-16T01:30:16;8.55;;;4.28;;
29550;SDS011;16488;52.396;10.696;2023-05-16T01:32:42;6.25;;;4.72;;
29550;SDS011;16488;52.396;10.696;2023-05-16T01:35:10;9.93;;;4.70;;
29550;SDS011;16488;52.396;10.696;2023-05-16T01:42:57;7.43;;;4.63;;
29550;SDS011;16488;52.396;10.696;2023-05-16T01:45:28;14.80;;;4.60;;
29550;SDS011;16488;52.396;10.696;2023-05-16T01:48:03;10.15;;;3.80;;
29550;SDS011;16488;52.396;10.696;2023-05-16T01:50:38;9.48;;;4.63;;
29550;SDS011;16488;52.396;10.696;2023-05-16T01:53:11;8.90;;;3.88;;
29550;SDS011;16488;52.396;10.696;2023-05-16T01:55:47;12.07;;;5.38;;
29550;SDS011;16488;52.396;10.696;2023-05-16T01:58:16;12.77;;;4.32;;
29550;SDS011;16488;52.396;10.696;2023-05-16T02:00:45;12.40;;;4.22;;
29550;SDS011;16488;52.396;10.696;2023-05-16T02:03:11;6.03;;;3.20;;
29550;SDS011;16488;52.396;10.696;2023-05-16T02:05:36;8.45;;;4.22;;
29550;SDS011;16488;52.396;10.696;2023-05-16T02:08:02;8.65;;;3.60;;
29550;SDS011;16488;52.396;10.696;2023-05-16T02:12:55;7.70;;;4.00;;
29550;SDS011;16488;52.396;10.696;2023-05-16T02:15:22;10.93;;;3.35;;
29550;SDS011;16488;52.396;10.696;2023-05-16T02:17:48;10.48;;;3.95;;
29550;SDS011;16488;52.396;10.696;2023-05-16T02:20:13;6.72;;;3.28;;
29550;SDS011;16488;52.396;10.696;2023-05-16T02:22:39;6.80;;;3.88;;
29550;SDS011;16488;52.396;10.696;2023-05-16T02:25:06;9.25;;;4.13;;
29550;SDS011;16488;52.396;10.696;2023-05-16T02:27:32;7.82;;;4.22;;
29550;SDS011;16488;52.396;10.696;2023-05-16T02:29:58;6.70;;;3.75;;
29550;SDS011;16488;52.396;10.696;2023-05-16T02:32:24;8.95;;;5.00;;
29550;SDS011;16488;52.396;10.696;2023-05-16T02:34:50;13.52;;;4.55;;
29550;SDS011;16488;52.396;10.696;2023-05-16T02:37:15;8.00;;;4.35;;
29550;SDS011;16488;52.396;10.696;2023-05-16T02:39:41;7.53;;;3.87;;
29550;SDS011;16488;52.396;10.696;2023-05-16T02:42:06;7.70;;;4.30;;
29550;SDS011;16488;52.396;10.696;2023-05-16T02:44:32;8.82;;;4.32;;
29550;SDS011;16488;52.396;10.696;2023-05-16T02:46:58;8.47;;;4.07;;
29550;SDS011;16488;52.396;10.696;2023-05-16T02:49:24;7.53;;;3.60;;
29550;SDS011;16488;52.396;10.696;2023-05-16T02:51:49;5.78;;;3.80;;
29550;SDS011;16488;52.396;10.696;2023-05-16T02:54:15;10.18;;;3.88;;
29550;SDS011;16488;52.396;10.696;2023-05-16T02:56:41;6.35;;;3.90;;
29550;SDS011;16488;52.396;10.696;2023-05-16T02:59:07;12.63;;;3.60;;
29550;SDS011;16488;52.396;10.696;2023-05-16T03:01:33;10.70;;;3.80;;
29550;SDS011;16488;52.396;10.696;2023-05-16T03:03:58;6.45;;;3.40;;
29550;SDS011;16488;52.396;10.696;2023-05-16T03:06:24;7.10;;;3.25;;
29550;SDS011;16488;52.396;10.696;2023-05-16T03:08:50;8.25;;;3.28;;
29550;SDS011;16488;52.396;10.696;2023-05-16T03:11:16;7.38;;;3.83;;
29550;SDS011;16488;52.396;10.696;2023-05-16T03:13:45;11.82;;;3.72;;
29550;SDS011;16488;52.396;10.696;2023-05-16T03:16:11;8.63;;;3.38;;
29550;SDS011;16488;52.396;10.696;2023-05-16T03:18:37;9.03;;;3.60;;
29550;SDS011;16488;52.396;10.696;2023-05-16T03:21:02;5.00;;;3.92;;
29550;SDS011;16488;52.396;10.696;2023-05-16T03:23:28;13.77;;;3.97;;
29550;SDS011;16488;52.396;10.696;2023-05-16T03:25:54;6.28;;;3.20;;
29550;SDS011;16488;52.396;10.696;2023-05-16T03:28:20;8.00;;;3.30;;
29550;SDS011;16488;52.396;10.696;2023-05-16T03:30:46;7.57;;;2.80;;
29550;SDS011;16488;52.396;10.696;2023-05-16T03:33:11;6.78;;;3.17;;
29550;SDS011;16488;52.396;10.696;2023-05-16T03:35:37;8.80;;;3.57;;
29550;SDS011;16488;52.396;10.696;2023-05-16T03:38:03;5.75;;;3.38;;
29550;SDS011;16488;52.396;10.696;2023-05-16T03:40:29;7.13;;;2.95;;
29550;SDS011;16488;52.396;10.696;2023-05-16T03:42:55;8.93;;;3.03;;
29550;SDS011;16488;52.396;10.696;2023-05-16T03:45:21;11.07;;;3.40;;
29550;SDS011;16488;52.396;10.696;2023-05-16T03:47:49;6.20;;;2.97;;
29550;SDS011;16488;52.396;10.696;2023-05-16T03:50:15;11.38;;;3.92;;
29550;SDS011;16488;52.396;10.696;2023-05-16T03:52:41;8.90;;;4.38;;
29550;SDS011;16488;52.396;10.696;2023-05-16T03:55:07;10.65;;;3.72;;
29550;SDS011;16488;52.396;10.696;2023-05-16T03:57:33;7.93;;;4.00;;
29550;SDS011;16488;52.396;10.696;2023-05-16T04:00:01;11.25;;;4.55;;
29550;SDS011;16488;52.396;10.696;2023-05-16T04:02:27;7.95;;;3.67;;
29550;SDS011;16488;52.396;10.696;2023-05-16T04:04:53;7.23;;;3.67;;
29550;SDS011;16488;52.396;10.696;2023-05-16T04:07:19;6.70;;;3.17;;
29550;SDS011;16488;52.396;10.696;2023-05-16T04:09:44;6.85;;;2.70;;
29550;SDS011;16488;52.396;10.696;2023-05-16T04:12:10;7.23;;;3.37;;
29550;SDS011;16488;52.396;10.696;2023-05-16T04:14:35;9.77;;;3.20;;
29550;SDS011;16488;52.396;10.696;2023-05-16T04:17:02;6.53;;;2.88;;
29550;SDS011;16488;52.396;10.696;2023-05-16T04:19:27;4.97;;;2.85;;
29550;SDS011;16488;52.396;10.696;2023-05-16T04:21:53;8.53;;;3.73;;
29550;SDS011;16488;52.396;10.696;2023-05-16T04:24:19;12.32;;;3.55;;
29550;SDS011;16488;52.396;10.696;2023-05-16T04:26:45;12.98;;;3.58;;
29550;SDS011;16488;52.396;10.696;2023-05-16T04:29:11;10.75;;;4.18;;
29550;SDS011;16488;52.396;10.696;2023-05-16T04:31:38;7.97;;;3.67;;
29550;SDS011;16488;52.396;10.696;2023-05-16T04:34:04;6.00;;;3.90;;
29550;SDS011;16488;52.396;10.696;2023-05-16T04:36:29;11.00;;;3.92;;
29550;SDS011;16488;52.396;10.696;2023-05-16T04:38:55;7.05;;;3.95;;
29550;SDS011;16488;52.396;10.696;2023-05-16T04:41:21;9.65;;;4.53;;
29550;SDS011;16488;52.396;10.696;2023-05-16T04:43:48;8.70;;;4.38;;
29550;SDS011;16488;52.396;10.696;2023-05-16T04:46:13;8.13;;;4.53;;
29550;SDS011;16488;52.396;10.696;2023-05-16T04:48:42;9.98;;;4.22;;
29550;SDS011;16488;52.396;10.696;2023-05-16T04:51:08;6.70;;;3.10;;
29550;SDS011;16488;52.396;10.696;2023-05-16T04:53:33;8.70;;;3.67;;
29550;SDS011;16488;52.396;10.696;2023-05-16T04:55:59;6.10;;;3.55;;
29550;SDS011;16488;52.396;10.696;2023-05-16T04:58:25;13.95;;;3.28;;
29550;SDS011;16488;52.396;10.696;2023-05-16T05:00:51;9.45;;;3.65;;
29550;SDS011;16488;52.396;10.696;2023-05-16T05:03:17;17.13;;;3.10;;
29550;SDS011;16488;52.396;10.696;2023-05-16T05:05:42;10.43;;;3.40;;
29550;SDS011;16488;52.396;10.696;2023-05-16T05:08:08;7.07;;;3.13;;
29550;SDS011;16488;52.396;10.696;2023-05-16T05:10:34;8.68;;;3.10;;
29550;SDS011;16488;52.396;10.696;2023-05-16T05:13:00;16.15;;;3.58;;
29550;SDS011;16488;52.396;10.696;2023-05-16T05:15:26;12.40;;;3.50;;
29550;SDS011;16488;52.396;10.696;2023-05-16T05:17:52;12.70;;;3.15;;
29550;SDS011;16488;52.396;10.696;2023-05-16T05:20:18;9.00;;;2.47;;
29550;SDS011;16488;52.396;10.696;2023-05-16T05:22:43;10.45;;;3.20;;
29550;SDS011;16488;52.396;10.696;2023-05-16T05:25:09;6.00;;;2.88;;
29550;SDS011;16488;52.396;10.696;2023-05-16T05:27:35;6.72;;;2.53;;
29550;SDS011;16488;52.396;10.696;2023-05-16T05:30:01;11.85;;;2.95;;
29550;SDS011;16488;52.396;10.696;2023-05-16T05:34:52;16.77;;;3.13;;
29550;SDS011;16488;52.396;10.696;2023-05-16T05:37:18;12.43;;;2.60;;
29550;SDS011;16488;52.396;10.696;2023-05-16T05:39:43;11.75;;;2.95;;
29550;SDS011;16488;52.396;10.696;2023-05-16T05:42:10;11.38;;;2.55;;
29550;SDS011;16488;52.396;10.696;2023-05-16T05:44:36;11.75;;;2.38;;
29550;SDS011;16488;52.396;10.696;2023-05-16T05:47:02;13.50;;;2.78;;
29550;SDS011;16488;52.396;10.696;2023-05-16T05:49:31;13.10;;;3.72;;
29550;SDS011;16488;52.396;10.696;2023-05-16T05:51:57;7.05;;;2.78;;
29550;SDS011;16488;52.396;10.696;2023-05-16T05:54:22;10.27;;;2.58;;
29550;SDS011;16488;52.396;10.696;2023-05-16T05:56:48;11.75;;;2.17;;
29550;SDS011;16488;52.396;10.696;2023-05-16T05:59:14;16.40;;;3.60;;
29550;SDS011;16488;52.396;10.696;2023-05-16T06:01:40;16.90;;;3.03;;
29550;SDS011;16488;52.396;10.696;2023-05-16T06:04:07;16.17;;;2.83;;
29550;SDS011;16488;52.396;10.696;2023-05-16T06:06:33;13.57;;;2.17;;
29550;SDS011;16488;52.396;10.696;2023-05-16T06:08:59;15.88;;;3.15;;
29550;SDS011;16488;52.396;10.696;2023-05-16T06:11:25;17.88;;;2.90;;
29550;SDS011;16488;52.396;10.696;2023-05-16T06:13:51;21.13;;;3.67;;
29550;SDS011;16488;52.396;10.696;2023-05-16T06:16:17;12.88;;;3.40;;
29550;SDS011;16488;52.396;10.696;2023-05-16T06:18:42;11.18;;;2.97;;
29550;SDS011;16488;52.396;10.696;2023-05-16T06:21:08;17.45;;;3.55;;
29550;SDS011;16488;52.396;10.696;2023-05-16T06:23:34;18.15;;;3.60;;
29550;SDS011;16488;52.396;10.696;2023-05-16T06:26:00;17.38;;;3.22;;
29550;SDS011;16488;52.396;10.696;2023-05-16T06:28:27;13.35;;;2.95;;
29550;SDS011;16488;52.396;10.696;2023-05-16T06:30:53;17.08;;;3.15;;
29550;SDS011;16488;52.396;10.696;2023-05-16T06:33:18;17.33;;;3.30;;
29550;SDS011;16488;52.396;10.696;2023-05-16T06:35:44;14.80;;;3.42;;
29550;SDS011;16488;52.396;10.696;2023-05-16T06:38:12;12.75;;;3.75;;
29550;SDS011;16488;52.396;10.696;2023-05-16T06:40:37;9.60;;;2.53;;
29550;SDS011;16488;52.396;10.696;2023-05-16T06:43:03;26.90;;;4.77;;
29550;SDS011;16488;52.396;10.696;2023-05-16T06:45:29;15.85;;;3.65;;
29550;SDS011;16488;52.396;10.696;2023-05-16T06:47:54;18.63;;;2.53;;
29550;SDS011;16488;52.396;10.696;2023-05-16T06:50:21;16.00;;;3.08;;
29550;SDS011;16488;52.396;10.696;2023-05-16T06:52:47;13.52;;;3.20;;
29550;SDS011;16488;52.396;10.696;2023-05-16T06:55:12;16.02;;;2.75;;
29550;SDS011;16488;52.396;10.696;2023-05-16T06:57:38;17.42;;;3.47;;
29550;SDS011;16488;52.396;10.696;2023-05-16T07:00:04;15.50;;;3.55;;
29550;SDS011;16488;52.396;10.696;2023-05-16T07:02:31;16.60;;;3.50;;
29550;SDS011;16488;52.396;10.696;2023-05-16T07:04:56;15.80;;;3.03;;
29550;SDS011;16488;52.396;10.696;2023-05-16T07:07:22;15.37;;;3.77;;
29550;SDS011;16488;52.396;10.696;2023-05-16T07:09:47;17.43;;;2.97;;
29550;SDS011;16488;52.396;10.696;2023-05-16T07:12:13;26.50;;;3.28;;
29550;SDS011;16488;52.396;10.696;2023-05-16T07:14:38;12.82;;;2.90;;
29550;SDS011;16488;52.396;10.696;2023-05-16T07:17:04;14.35;;;2.85;;
29550;SDS011;16488;52.396;10.696;2023-05-16T07:19:30;14.43;;;3.10;;
29550;SDS011;16488;52.396;10.696;2023-05-16T07:21:56;23.77;;;4.90;;
29550;SDS011;16488;52.396;10.696;2023-05-16T07:24:21;12.05;;;3.10;;
29550;SDS011;16488;52.396;10.696;2023-05-16T07:26:47;19.33;;;3.28;;
29550;SDS011;16488;52.396;10.696;2023-05-16T07:29:13;23.77;;;3.43;;
29550;SDS011;16488;52.396;10.696;2023-05-16T07:31:38;12.85;;;2.75;;
29550;SDS011;16488;52.396;10.696;2023-05-16T07:34:04;14.47;;;3.40;;
29550;SDS011;16488;52.396;10.696;2023-05-16T07:36:30;13.95;;;2.55;;
29550;SDS011;16488;52.396;10.696;2023-05-16T07:38:56;24.33;;;3.67;;
29550;SDS011;16488;52.396;10.696;2023-05-16T07:41:21;18.20;;;2.93;;
29550;SDS011;16488;52.396;10.696;2023-05-16T07:43:47;19.20;;;3.50;;
29550;SDS011;16488;52.396;10.696;2023-05-16T07:46:12;11.90;;;2.37;;
29550;SDS011;16488;52.396;10.696;2023-05-16T07:48:38;22.35;;;3.88;;
29550;SDS011;16488;52.396;10.696;2023-05-16T07:51:03;12.52;;;3.22;;
29550;SDS011;16488;52.396;10.696;2023-05-16T07:53:29;22.38;;;3.08;;
29550;SDS011;16488;52.396;10.696;2023-05-16T07:55:55;16.23;;;2.83;;
29550;SDS011;16488;52.396;10.696;2023-05-16T07:58:20;17.38;;;2.95;;
29550;SDS011;16488;52.396;10.696;2023-05-16T08:00:46;12.25;;;2.65;;
29550;SDS011;16488;52.396;10.696;2023-05-16T08:03:12;15.90;;;3.65;;
29550;SDS011;16488;52.396;10.696;2023-05-16T08:05:37;20.95;;;3.55;;
29550;SDS011;16488;52.396;10.696;2023-05-16T08:08:03;16.00;;;2.78;;
29550;SDS011;16488;52.396;10.696;2023-05-16T08:10:29;9.30;;;2.17;;
29550;SDS011;16488;52.396;10.696;2023-05-16T08:12:55;17.25;;;2.53;;
29550;SDS011;16488;52.396;10.696;2023-05-16T08:15:20;13.50;;;2.90;;
29550;SDS011;16488;52.396;10.696;2023-05-16T08:17:46;15.85;;;2.42;;
29550;SDS011;16488;52.396;10.696;2023-05-16T08:20:12;15.35;;;2.78;;
29550;SDS011;16488;52.396;10.696;2023-05-16T08:25:04;14.02;;;3.30;;
29550;SDS011;16488;52.396;10.696;2023-05-16T08:27:30;18.00;;;3.30;;
29550;SDS011;16488;52.396;10.696;2023-05-16T08:29:55;10.93;;;1.90;;
29550;SDS011;16488;52.396;10.696;2023-05-16T08:32:21;10.25;;;2.65;;
29550;SDS011;16488;52.396;10.696;2023-05-16T08:34:47;16.35;;;2.63;;
29550;SDS011;16488;52.396;10.696;2023-05-16T08:37:13;16.15;;;2.95;;
29550;SDS011;16488;52.396;10.696;2023-05-16T08:39:38;16.25;;;2.50;;
29550;SDS011;16488;52.396;10.696;2023-05-16T08:42:04;16.90;;;2.90;;
29550;SDS011;16488;52.396;10.696;2023-05-16T08:44:30;15.73;;;2.60;;
29550;SDS011;16488;52.396;10.696;2023-05-16T08:46:56;15.98;;;3.95;;
29550;SDS011;16488;52.396;10.696;2023-05-16T08:49:33;12.75;;;3.05;;
29550;SDS011;16488;52.396;10.696;2023-05-16T08:51:59;17.40;;;3.22;;
29550;SDS011;16488;52.396;10.696;2023-05-16T08:54:27;15.80;;;3.70;;
29550;SDS011;16488;52.396;10.696;2023-05-16T08:56:53;17.35;;;3.50;;
29550;SDS011;16488;52.396;10.696;2023-05-16T08:59:21;14.70;;;2.20;;
29550;SDS011;16488;52.396;10.696;2023-05-16T09:01:47;8.52;;;2.05;;
29550;SDS011;16488;52.396;10.696;2023-05-16T09:04:13;18.55;;;2.70;;
29550;SDS011;16488;52.396;10.696;2023-05-16T09:06:40;13.10;;;2.40;;
29550;SDS011;16488;52.396;10.696;2023-05-16T09:09:05;22.30;;;2.78;;
29550;SDS011;16488;52.396;10.696;2023-05-16T09:11:33;13.18;;;2.42;;
29550;SDS011;16488;52.396;10.696;2023-05-16T09:13:59;16.05;;;3.25;;
29550;SDS011;16488;52.396;10.696;2023-05-16T09:16:25;11.85;;;1.80;;
29550;SDS011;16488;52.396;10.696;2023-05-16T09:18:54;18.77;;;2.92;;
29550;SDS011;16488;52.396;10.696;2023-05-16T09:21:25;10.93;;;2.50;;
29550;SDS011;16488;52.396;10.696;2023-05-16T09:23:52;16.65;;;2.42;;
29550;SDS011;16488;52.396;10.696;2023-05-16T09:26:17;10.93;;;2.70;;
29550;SDS011;16488;52.396;10.696;2023-05-16T09:28:43;14.40;;;2.28;;
29550;SDS011;16488;52.396;10.696;2023-05-16T09:31:19;12.40;;;2.72;;
29550;SDS011;16488;52.396;10.696;2023-05-16T09:33:46;12.88;;;2.92;;
29550;SDS011;16488;52.396;10.696;2023-05-16T09:36:14;8.52;;;1.95;;
29550;SDS011;16488;52.396;10.696;2023-05-16T09:38:39;14.95;;;2.58;;
29550;SDS011;16488;52.396;10.696;2023-05-16T09:41:05;15.38;;;2.35;;
29550;SDS011;16488;52.396;10.696;2023-05-16T09:43:33;11.13;;;1.63;;
29550;SDS011;16488;52.396;10.696;2023-05-16T09:46:03;18.02;;;2.47;;
29550;SDS011;16488;52.396;10.696;2023-05-16T09:48:29;16.70;;;2.38;;
29550;SDS011;16488;52.396;10.696;2023-05-16T09:50:56;8.32;;;2.22;;
29550;SDS011;16488;52.396;10.696;2023-05-16T09:53:27;9.63;;;2.08;;
29550;SDS011;16488;52.396;10.696;2023-05-16T09:56:12;12.85;;;1.75;;
29550;SDS011;16488;52.396;10.696;2023-05-16T09:58:39;8.55;;;2.05;;
29550;SDS011;16488;52.396;10.696;2023-05-16T10:01:07;12.20;;;2.42;;
29550;SDS011;16488;52.396;10.696;2023-05-16T10:03:35;20.92;;;2.60;;
29550;SDS011;16488;52.396;10.696;2023-05-16T10:06:03;5.68;;;1.85;;
29550;SDS011;16488;52.396;10.696;2023-05-16T10:08:30;9.95;;;1.33;;
29550;SDS011;16488;52.396;10.696;2023-05-16T10:11:00;11.85;;;2.20;;
29550;SDS011;16488;52.396;10.696;2023-05-16T10:13:30;11.68;;;1.70;;
29550;SDS011;16488;52.396;10.696;2023-05-16T10:16:06;10.02;;;1.67;;
29550;SDS011;16488;52.396;10.696;2023-05-16T10:18:35;8.20;;;1.70;;
29550;SDS011;16488;52.396;10.696;2023-05-16T10:21:07;8.85;;;1.67;;
29550;SDS011;16488;52.396;10.696;2023-05-16T10:23:35;7.25;;;1.63;;
29550;SDS011;16488;52.396;10.696;2023-05-16T10:26:05;13.77;;;1.60;;
29550;SDS011;16488;52.396;10.696;2023-05-16T10:28:32;7.40;;;1.67;;
29550;SDS011;16488;52.396;10.696;2023-05-16T10:30:59;5.82;;;1.58;;
29550;SDS011;16488;52.396;10.696;2023-05-16T10:33:26;7.40;;;1.85;;
29550;SDS011;16488;52.396;10.696;2023-05-16T10:35:52;16.70;;;2.13;;
29550;SDS011;16488;52.396;10.696;2023-05-16T10:38:20;5.97;;;1.58;;
29550;SDS011;16488;52.396;10.696;2023-05-16T10:40:47;7.47;;;1.23;;
29550;SDS011;16488;52.396;10.696;2023-05-16T10:43:27;6.75;;;1.75;;
29550;SDS011;16488;52.396;10.696;2023-05-16T10:46:01;8.98;;;1.52;;
29550;SDS011;16488;52.396;10.696;2023-05-16T10:48:32;13.30;;;1.95;;
29550;SDS011;16488;52.396;10.696;2023-05-16T10:51:03;3.80;;;1.35;;
29550;SDS011;16488;52.396;10.696;2023-05-16T10:53:50;6.93;;;1.67;;
29550;SDS011;16488;52.396;10.696;2023-05-16T10:56:22;6.35;;;1.70;;
29550;SDS011;16488;52.396;10.696;2023-05-16T10:58:49;5.80;;;1.50;;
29550;SDS011;16488;52.396;10.696;2023-05-16T11:06:23;9.75;;;1.45;;
29550;SDS011;16488;52.396;10.696;2023-05-16T11:11:41;12.85;;;1.55;;
29550;SDS011;16488;52.396;10.696;2023-05-16T11:14:24;4.85;;;1.38;;
29550;SDS011;16488;52.396;10.696;2023-05-16T11:19:28;7.75;;;1.95;;
29550;SDS011;16488;52.396;10.696;2023-05-16T11:24:34;12.15;;;1.75;;
29550;SDS011;16488;52.396;10.696;2023-05-16T11:27:00;13.80;;;2.13;;
29550;SDS011;16488;52.396;10.696;2023-05-16T11:29:28;7.13;;;2.10;;
29550;SDS011;16488;52.396;10.696;2023-05-16T11:31:58;7.80;;;1.77;;
29550;SDS011;16488;52.396;10.696;2023-05-16T11:34:24;10.60;;;2.17;;
29550;SDS011;16488;52.396;10.696;2023-05-16T11:36:50;7.78;;;2.20;;
29550;SDS011;16488;52.396;10.696;2023-05-16T11:39:16;6.60;;;1.80;;
29550;SDS011;16488;52.396;10.696;2023-05-16T11:41:45;6.60;;;1.63;;
29550;SDS011;16488;52.396;10.696;2023-05-16T11:44:11;9.55;;;1.60;;
29550;SDS011;16488;52.396;10.696;2023-05-16T11:46:40;8.95;;;2.00;;
29550;SDS011;16488;52.396;10.696;2023-05-16T11:49:06;13.70;;;2.17;;
29550;SDS011;16488;52.396;10.696;2023-05-16T11:51:33;14.93;;;2.10;;
29550;SDS011;16488;52.396;10.696;2023-05-16T11:54:03;8.88;;;1.73;;
29550;SDS011;16488;52.396;10.696;2023-05-16T11:56:29;8.48;;;1.95;;
29550;SDS011;16488;52.396;10.696;2023-05-16T11:58:56;11.43;;;1.77;;
29550;SDS011;16488;52.396;10.696;2023-05-16T12:01:30;8.20;;;1.67;;
29550;SDS011;16488;52.396;10.696;2023-05-16T12:04:01;4.93;;;1.33;;
29550;SDS011;16488;52.396;10.696;2023-05-16T12:06:28;6.13;;;1.73;;
29550;SDS011;16488;52.396;10.696;2023-05-16T12:08:55;7.72;;;1.80;;
29550;SDS011;16488;52.396;10.696;2023-05-16T12:11:22;10.05;;;1.60;;
29550;SDS011;16488;52.396;10.696;2023-05-16T12:13:48;12.82;;;2.63;;
29550;SDS011;16488;52.396;10.696;2023-05-16T12:16:14;10.13;;;1.77;;
29550;SDS011;16488;52.396;10.696;2023-05-16T12:18:40;6.05;;;1.98;;
29550;SDS011;16488;52.396;10.696;2023-05-16T12:21:06;6.93;;;1.50;;
29550;SDS011;16488;52.396;10.696;2023-05-16T12:23:33;8.80;;;1.60;;
29550;SDS011;16488;52.396;10.696;2023-05-16T12:25:59;9.82;;;1.50;;
29550;SDS011;16488;52.396;10.696;2023-05-16T12:28:31;4.97;;;1.33;;
29550;SDS011;16488;52.396;10.696;2023-05-16T12:30:58;6.57;;;1.40;;
29550;SDS011;16488;52.396;10.696;2023-05-16T12:33:24;6.17;;;1.93;;
29550;SDS011;16488;52.396;10.696;2023-05-16T12:35:49;8.93;;;1.40;;
29550;SDS011;16488;52.396;10.696;2023-05-16T12:38:17;6.43;;;1.70;;
29550;SDS011;16488;52.396;10.696;2023-05-16T12:40:44;13.40;;;2.70;;
29550;SDS011;16488;52.396;10.696;2023-05-16T12:45:39;7.40;;;1.80;;
29550;SDS011;16488;52.396;10.696;2023-05-16T12:48:10;6.72;;;1.95;;
29550;SDS011;16488;52.396;10.696;2023-05-16T12:50:38;5.70;;;1.50;;
29550;SDS011;16488;52.396;10.696;2023-05-16T12:53:04;11.57;;;2.55;;
29550;SDS011;16488;52.396;10.696;2023-05-16T12:55:34;8.70;;;1.75;;
29550;SDS011;16488;52.396;10.696;2023-05-16T12:58:00;3.63;;;1.10;;
29550;SDS011;16488;52.396;10.696;2023-05-16T13:00:26;4.45;;;0.95;;
29550;SDS011;16488;52.396;10.696;2023-05-16T13:02:52;3.83;;;1.33;;
29550;SDS011;16488;52.396;10.696;2023-05-16T13:07:46;5.03;;;1.40;;
29550;SDS011;16488;52.396;10.696;2023-05-16T13:10:11;2.58;;;0.90;;
29550;SDS011;16488;52.396;10.696;2023-05-16T13:12:38;8.10;;;1.48;;
29550;SDS011;16488;52.396;10.696;2023-05-16T13:15:06;9.77;;;1.73;;
29550;SDS011;16488;52.396;10.696;2023-05-16T13:17:33;6.97;;;1.33;;
29550;SDS011;16488;52.396;10.696;2023-05-16T13:19:59;11.77;;;2.22;;
29550;SDS011;16488;52.396;10.696;2023-05-16T13:22:26;12.75;;;1.88;;
29550;SDS011;16488;52.396;10.696;2023-05-16T13:24:52;4.65;;;1.08;;
29550;SDS011;16488;52.396;10.696;2023-05-16T13:27:17;7.60;;;1.47;;
29550;SDS011;16488;52.396;10.696;2023-05-16T13:29:43;8.23;;;1.80;;
29550;SDS011;16488;52.396;10.696;2023-05-16T13:32:09;11.75;;;1.70;;
29550;SDS011;16488;52.396;10.696;2023-05-16T13:34:34;13.15;;;1.88;;
29550;SDS011;16488;52.396;10.696;2023-05-16T13:37:00;10.27;;;1.90;;
29550;SDS011;16488;52.396;10.696;2023-05-16T13:39:26;12.93;;;2.38;;
29550;SDS011;16488;52.396;10.696;2023-05-16T13:41:51;15.95;;;2.35;;
29550;SDS011;16488;52.396;10.696;2023-05-16T13:44:17;11.52;;;2.05;;
29550;SDS011;16488;52.396;10.696;2023-05-16T13:46:43;15.57;;;2.13;;
29550;SDS011;16488;52.396;10.696;2023-05-16T13:49:09;8.45;;;1.38;;
29550;SDS011;16488;52.396;10.696;2023-05-16T13:51:35;12.63;;;2.00;;
29550;SDS011;16488;52.396;10.696;2023-05-16T13:54:00;8.80;;;2.03;;
29550;SDS011;16488;52.396;10.696;2023-05-16T13:56:26;9.90;;;2.00;;
29550;SDS011;16488;52.396;10.696;2023-05-16T13:58:52;9.05;;;2.13;;
29550;SDS011;16488;52.396;10.696;2023-05-16T14:01:18;7.40;;;2.30;;
29550;SDS011;16488;52.396;10.696;2023-05-16T14:03:43;6.78;;;1.48;;
29550;SDS011;16488;52.396;10.696;2023-05-16T14:06:09;5.97;;;1.45;;
29550;SDS011;16488;52.396;10.696;2023-05-16T14:08:35;4.90;;;1.45;;
29550;SDS011;16488;52.396;10.696;2023-05-16T14:11:00;10.50;;;1.73;;
29550;SDS011;16488;52.396;10.696;2023-05-16T14:13:26;12.63;;;1.80;;
29550;SDS011;16488;52.396;10.696;2023-05-16T14:15:52;4.65;;;1.83;;
29550;SDS011;16488;52.396;10.696;2023-05-16T14:18:17;5.53;;;1.53;;
29550;SDS011;16488;52.396;10.696;2023-05-16T14:20:43;3.95;;;1.70;;
29550;SDS011;16488;52.396;10.696;2023-05-16T14:23:09;9.63;;;2.28;;
29550;SDS011;16488;52.396;10.696;2023-05-16T14:25:34;5.97;;;2.22;;
29550;SDS011;16488;52.396;10.696;2023-05-16T14:28:00;6.85;;;1.77;;
29550;SDS011;16488;52.396;10.696;2023-05-16T14:30:26;12.35;;;1.98;;
29550;SDS011;16488;52.396;10.696;2023-05-16T14:32:51;4.53;;;1.20;;
29550;SDS011;16488;52.396;10.696;2023-05-16T14:35:17;4.63;;;1.52;;
29550;SDS011;16488;52.396;10.696;2023-05-16T14:37:44;10.63;;;2.10;;
29550;SDS011;16488;52.396;10.696;2023-05-16T14:40:10;4.13;;;1.40;;
29550;SDS011;16488;52.396;10.696;2023-05-16T14:42:36;3.83;;;1.50;;
29550;SDS011;16488;52.396;10.696;2023-05-16T14:45:02;5.03;;;2.08;;
29550;SDS011;16488;52.396;10.696;2023-05-16T14:47:27;5.95;;;1.88;;
29550;SDS011;16488;52.396;10.696;2023-05-16T14:49:55;7.47;;;2.20;;
29550;SDS011;16488;52.396;10.696;2023-05-16T14:52:20;6.38;;;2.20;;
29550;SDS011;16488;52.396;10.696;2023-05-16T14:54:46;5.70;;;1.90;;
29550;SDS011;16488;52.396;10.696;2023-05-16T14:57:11;7.27;;;1.73;;
29550;SDS011;16488;52.396;10.696;2023-05-16T14:59:37;7.70;;;1.83;;
29550;SDS011;16488;52.396;10.696;2023-05-16T15:02:03;5.47;;;1.90;;
29550;SDS011;16488;52.396;10.696;2023-05-16T15:04:29;4.90;;;2.30;;
29550;SDS011;16488;52.396;10.696;2023-05-16T15:06:55;6.38;;;2.40;;
29550;SDS011;16488;52.396;10.696;2023-05-16T15:09:20;8.90;;;2.00;;